createdAt,value
2017-10-02T00:01:39.137Z,83.70
2017-10-02T00:04:42.233Z,83.60
2017-10-02T00:07:44.350Z,83.60
2017-10-02T00:10:46.691Z,83.60
2017-10-02T00:13:48.733Z,83.40
2017-10-02T00:16:51.106Z,83.30
2017-10-02T00:19:53.171Z,83.10
2017-10-02T00:22:55.598Z,83.00
2017-10-02T00:25:57.540Z,82.80
2017-10-02T00:28:59.903Z,82.60
2017-10-02T00:32:01.844Z,82.50
2017-10-02T00:35:04.208Z,82.40
2017-10-02T00:38:06.170Z,82.00
2017-10-02T00:41:08.515Z,82.60
2017-10-02T00:44:10.587Z,81.90
2017-10-02T00:47:12.922Z,81.70
2017-10-02T00:50:14.927Z,81.40
2017-10-02T00:53:18.075Z,81.50
2017-10-02T00:56:20.050Z,81.50
2017-10-02T00:59:22.368Z,81.30
2017-10-02T01:02:24.303Z,81.10
2017-10-02T01:05:26.668Z,80.90
2017-10-02T01:08:28.593Z,80.70
2017-10-02T01:11:31.689Z,80.70
2017-10-02T01:14:33.626Z,80.60
2017-10-02T01:17:36.018Z,80.60
2017-10-02T01:20:38.044Z,80.40
2017-10-02T01:23:41.219Z,80.60
2017-10-02T01:26:43.183Z,80.90
2017-10-02T01:29:45.479Z,81.00
2017-10-02T01:32:47.465Z,80.90
2017-10-02T01:35:49.732Z,81.00
2017-10-02T01:38:51.666Z,81.30
2017-10-02T01:41:54.037Z,81.20
2017-10-02T01:44:55.986Z,81.30
2017-10-02T01:47:58.353Z,81.50
2017-10-02T01:51:00.289Z,81.60
2017-10-02T01:54:02.659Z,81.70
2017-10-02T01:57:05.516Z,81.60
2017-10-02T02:00:07.882Z,81.50
2017-10-02T02:03:10.024Z,81.60
2017-10-02T02:06:12.468Z,81.60
2017-10-02T02:09:14.401Z,81.50
2017-10-02T02:12:17.511Z,81.20
2017-10-02T02:15:19.460Z,81.20
2017-10-02T02:18:21.814Z,81.10
2017-10-02T02:21:23.857Z,81.20
2017-10-02T02:24:26.228Z,81.00
2017-10-02T02:27:28.271Z,81.20
2017-10-02T02:30:30.634Z,81.20
2017-10-02T02:33:32.648Z,81.20
2017-10-02T02:36:35.764Z,81.00
2017-10-02T02:39:37.807Z,81.00
2017-10-02T02:42:40.149Z,81.40
2017-10-02T02:45:42.201Z,81.70
2017-10-02T02:48:44.570Z,82.00
2017-10-02T02:51:46.528Z,82.00
2017-10-02T02:54:48.881Z,82.10
2017-10-02T02:57:50.815Z,82.30
2017-10-02T03:00:53.168Z,82.60
2017-10-02T03:03:55.131Z,82.80
2017-10-02T03:06:57.485Z,82.90
2017-10-02T03:09:59.440Z,83.00
2017-10-02T03:13:01.789Z,83.90
2017-10-02T03:16:03.724Z,84.20
2017-10-02T03:19:06.116Z,84.60
2017-10-02T03:22:08.149Z,85.00
2017-10-02T03:25:11.426Z,85.80
2017-10-02T03:28:13.372Z,86.80
2017-10-02T03:31:15.740Z,87.20
2017-10-02T03:34:17.783Z,87.30
2017-10-02T03:37:20.138Z,88.20
2017-10-02T03:40:22.183Z,89.30
2017-10-02T03:43:24.484Z,90.00
2017-10-02T03:46:26.483Z,90.10
2017-10-02T03:49:28.781Z,90.40
2017-10-02T03:52:30.702Z,90.70
2017-10-02T03:55:32.985Z,90.70
2017-10-02T03:58:35.011Z,90.90
2017-10-02T04:01:37.372Z,91.20
2017-10-02T04:04:39.401Z,91.30
2017-10-02T04:07:41.781Z,91.30
2017-10-02T04:10:43.831Z,91.40
2017-10-02T04:13:46.182Z,91.30
2017-10-02T04:16:48.226Z,91.50
2017-10-02T04:19:50.590Z,91.50
2017-10-02T04:22:52.646Z,91.60
2017-10-02T04:25:55.089Z,91.70
2017-10-02T04:28:57.020Z,91.70
2017-10-02T04:32:00.788Z,91.80
2017-10-02T04:35:03.531Z,91.80
2017-10-02T04:38:05.855Z,91.90
2017-10-02T04:41:07.796Z,92.10
2017-10-02T04:44:10.181Z,92.30
2017-10-02T04:47:12.123Z,92.30
2017-10-02T04:50:14.494Z,92.60
2017-10-02T04:53:16.512Z,92.70
2017-10-02T04:56:18.884Z,92.90
2017-10-02T04:59:20.889Z,93.00
2017-10-02T05:02:23.906Z,93.40
2017-10-02T05:05:25.833Z,93.30
2017-10-02T05:08:28.214Z,93.40
2017-10-02T05:11:30.138Z,93.50
2017-10-02T05:14:32.520Z,93.80
2017-10-02T05:17:34.509Z,93.80
2017-10-02T05:20:36.777Z,93.90
2017-10-02T05:23:39.478Z,94.60
2017-10-02T05:26:41.842Z,94.20
2017-10-02T05:29:43.798Z,94.40
2017-10-02T05:32:46.152Z,94.50
2017-10-02T05:35:48.246Z,94.60
2017-10-02T05:38:50.680Z,94.70
2017-10-02T05:41:52.719Z,94.70
2017-10-02T05:44:55.005Z,94.80
2017-10-02T05:47:57.019Z,94.80
2017-10-02T05:50:59.365Z,94.80
2017-10-02T05:54:01.303Z,94.90
2017-10-02T05:57:03.676Z,95.00
2017-10-02T06:00:05.612Z,95.10
2017-10-02T06:03:07.971Z,95.10
2017-10-02T06:06:09.919Z,95.10
2017-10-02T06:09:12.274Z,95.10
2017-10-02T06:12:14.197Z,95.20
2017-10-02T06:15:17.415Z,95.30
2017-10-02T06:18:19.347Z,95.20
2017-10-02T06:21:21.730Z,95.30
2017-10-02T06:24:23.655Z,95.30
2017-10-02T06:27:26.016Z,95.40
2017-10-02T06:30:27.973Z,95.40
2017-10-02T06:33:30.326Z,95.40
2017-10-02T06:36:32.248Z,95.50
2017-10-02T06:39:35.338Z,95.50
2017-10-02T06:42:37.296Z,95.50
2017-10-02T06:45:39.646Z,95.50
2017-10-02T06:48:41.595Z,95.60
2017-10-02T06:51:43.969Z,95.60
2017-10-02T06:54:45.889Z,95.60
2017-10-02T06:57:48.262Z,95.70
2017-10-02T07:00:50.207Z,95.70
2017-10-02T07:03:52.664Z,95.70
2017-10-02T07:06:54.615Z,95.70
2017-10-02T07:09:57.138Z,95.70
2017-10-02T07:12:59.944Z,96.10
2017-10-02T07:16:02.302Z,95.80
2017-10-02T07:19:04.323Z,95.90
2017-10-02T07:22:07.421Z,96.00
2017-10-02T07:25:09.385Z,96.00
2017-10-02T07:28:11.737Z,96.00
2017-10-02T07:31:13.667Z,96.00
2017-10-02T07:34:16.068Z,96.00
2017-10-02T07:37:17.990Z,96.10
2017-10-02T07:40:20.436Z,96.20
2017-10-02T07:43:22.355Z,96.10
2017-10-02T07:46:24.767Z,96.20
2017-10-02T07:49:26.806Z,96.20
2017-10-02T07:52:29.102Z,96.20
2017-10-02T07:55:31.030Z,96.20
2017-10-02T07:58:33.366Z,96.20
2017-10-02T08:01:35.301Z,96.20
2017-10-02T08:04:38.393Z,96.20
2017-10-02T08:07:40.338Z,96.20
2017-10-02T08:10:42.688Z,96.20
2017-10-02T08:13:44.634Z,96.20
2017-10-02T08:16:46.996Z,96.20
2017-10-02T08:19:48.924Z,96.20
2017-10-02T08:22:52.130Z,96.20
2017-10-02T08:25:54.069Z,96.30
2017-10-02T08:28:56.428Z,96.30
2017-10-02T08:31:58.345Z,96.30
2017-10-02T08:35:01.438Z,96.40
2017-10-02T08:38:03.402Z,96.40
2017-10-02T08:41:05.764Z,96.30
2017-10-02T08:44:07.828Z,96.20
2017-10-02T08:47:10.146Z,96.20
2017-10-02T08:50:12.077Z,96.30
2017-10-02T08:53:15.225Z,96.40
2017-10-02T08:56:17.255Z,96.40
2017-10-02T08:59:19.609Z,96.20
2017-10-02T09:02:21.550Z,96.00
2017-10-02T09:05:24.843Z,96.00
2017-10-02T09:08:26.791Z,96.00
2017-10-02T09:11:29.134Z,95.90
2017-10-02T09:14:31.081Z,95.70
2017-10-02T09:17:33.422Z,95.60
2017-10-02T09:20:35.355Z,95.30
2017-10-02T09:23:38.667Z,95.30
2017-10-02T09:26:40.593Z,95.30
2017-10-02T09:29:42.965Z,95.40
2017-10-02T09:32:44.903Z,95.10
2017-10-02T09:35:47.285Z,94.70
2017-10-02T09:38:49.328Z,94.60
2017-10-02T09:41:51.689Z,94.40
2017-10-02T09:44:54.557Z,94.50
2017-10-02T09:47:56.863Z,94.20
2017-10-02T09:50:59.672Z,93.50
2017-10-02T09:54:04.156Z,93.90
2017-10-02T09:57:06.963Z,93.70
2017-10-02T10:00:09.262Z,93.70
2017-10-02T10:03:11.256Z,93.40
2017-10-02T10:06:13.613Z,93.00
2017-10-02T10:09:15.559Z,92.80
2017-10-02T10:12:17.919Z,92.90
2017-10-02T10:15:19.853Z,92.80
2017-10-02T10:18:22.189Z,92.40
2017-10-02T10:21:24.991Z,92.10
2017-10-02T10:24:27.352Z,92.10
2017-10-02T10:27:29.295Z,91.50
2017-10-02T10:30:31.650Z,91.10
2017-10-02T10:33:33.587Z,90.90
2017-10-02T10:36:35.950Z,88.90
2017-10-02T10:39:37.916Z,86.70
2017-10-02T10:42:40.228Z,84.90
2017-10-02T10:45:42.211Z,84.80
2017-10-02T10:48:44.571Z,83.00
2017-10-02T10:51:46.520Z,81.80
2017-10-02T10:54:48.963Z,80.70
2017-10-02T10:57:50.926Z,78.60
2017-10-02T11:00:53.290Z,78.00
2017-10-02T11:03:55.549Z,76.60
2017-10-02T11:06:57.837Z,72.70
2017-10-02T11:09:59.777Z,69.30
2017-10-02T11:13:02.061Z,66.60
2017-10-02T11:16:04.761Z,64.10
2017-10-02T11:19:07.119Z,64.10
2017-10-02T11:22:09.057Z,64.60
2017-10-02T11:25:11.425Z,66.30
2017-10-02T11:28:13.381Z,70.30
2017-10-02T11:31:15.724Z,73.40
2017-10-02T11:34:17.665Z,76.20
2017-10-02T11:37:20.056Z,79.10
2017-10-02T11:40:22.003Z,81.50
2017-10-02T11:43:24.293Z,84.00
2017-10-02T11:46:27.126Z,83.00
2017-10-02T11:49:29.463Z,80.60
2017-10-02T11:52:31.413Z,77.90
2017-10-02T11:55:33.767Z,73.80
2017-10-02T11:58:35.707Z,71.30
2017-10-02T12:01:38.075Z,71.90
2017-10-02T12:04:40.022Z,70.60
2017-10-02T12:07:42.405Z,64.50
2017-10-02T12:10:44.333Z,63.50
2017-10-02T12:13:46.619Z,64.40
2017-10-02T12:16:48.554Z,66.10
2017-10-02T12:19:50.922Z,66.40
2017-10-02T12:22:52.961Z,65.70
2017-10-02T12:25:55.359Z,65.60
2017-10-02T12:28:57.354Z,64.60
2017-10-02T12:31:59.703Z,66.30
2017-10-02T12:35:01.658Z,65.20
2017-10-02T12:38:04.030Z,64.70
2017-10-02T12:41:05.971Z,64.00
2017-10-02T12:44:08.317Z,63.70
2017-10-02T12:47:10.290Z,64.20
2017-10-02T12:50:12.598Z,63.60
2017-10-02T12:53:15.315Z,51.80
2017-10-02T12:56:17.661Z,51.70
2017-10-02T12:59:19.709Z,47.50
2017-10-02T13:02:22.063Z,47.20
2017-10-02T13:05:24.013Z,47.90
2017-10-02T13:08:26.376Z,49.20
2017-10-02T13:11:28.412Z,51.40
2017-10-02T13:14:30.773Z,53.50
2017-10-02T13:17:32.710Z,56.40
2017-10-02T13:20:35.075Z,54.40
2017-10-02T13:23:37.026Z,48.70
2017-10-02T13:26:39.387Z,45.80
2017-10-02T13:29:41.427Z,44.80
2017-10-02T13:32:43.775Z,46.80
2017-10-02T13:35:45.706Z,50.50
2017-10-02T13:38:48.050Z,50.60
2017-10-02T13:41:49.975Z,53.50
2017-10-02T13:44:53.074Z,55.70
2017-10-02T13:47:55.007Z,55.70
2017-10-02T13:50:57.371Z,56.60
2017-10-02T13:53:59.323Z,56.80
2017-10-02T13:57:01.681Z,55.70
2017-10-02T14:00:03.756Z,56.20
2017-10-02T14:03:06.031Z,56.10
2017-10-02T14:06:08.038Z,56.20
2017-10-02T14:09:10.600Z,56.80
2017-10-02T14:12:12.533Z,56.50
2017-10-02T14:15:14.806Z,55.00
2017-10-02T14:18:16.803Z,54.80
2017-10-02T14:21:19.076Z,55.30
2017-10-02T14:24:21.866Z,56.40
2017-10-02T14:27:25.254Z,58.70
2017-10-02T14:30:27.220Z,58.10
2017-10-02T14:33:29.565Z,59.80
2017-10-02T14:36:31.485Z,61.00
2017-10-02T14:39:34.578Z,63.30
2017-10-02T14:42:36.532Z,63.20
2017-10-02T14:45:39.689Z,67.00
2017-10-02T14:48:42.391Z,67.90
2017-10-02T14:51:44.749Z,68.00
2017-10-02T14:54:46.684Z,67.70
2017-10-02T14:57:49.139Z,67.20
2017-10-02T15:00:51.101Z,68.40
2017-10-02T15:03:53.386Z,68.60
2017-10-02T15:06:56.945Z,69.60
2017-10-02T15:09:59.314Z,69.60
2017-10-02T15:13:01.251Z,70.50
2017-10-02T15:16:03.586Z,70.30
2017-10-02T15:19:05.537Z,69.60
2017-10-02T15:22:07.890Z,69.50
2017-10-02T15:25:09.854Z,69.60
2017-10-02T15:28:12.612Z,70.30
2017-10-02T15:31:14.548Z,70.90
2017-10-02T15:34:17.007Z,71.50
2017-10-02T15:37:18.960Z,72.20
2017-10-02T15:40:21.441Z,73.00
2017-10-02T15:43:23.473Z,73.80
2017-10-02T15:46:25.839Z,74.40
2017-10-02T15:49:27.832Z,75.10
2017-10-02T15:52:30.253Z,75.70
2017-10-02T15:55:32.302Z,76.90
2017-10-02T15:58:34.667Z,77.20
2017-10-02T16:01:36.595Z,77.60
2017-10-02T16:04:38.961Z,78.20
2017-10-02T16:07:40.980Z,79.20
2017-10-02T16:10:44.097Z,79.10
2017-10-02T16:13:46.184Z,79.00
2017-10-02T16:16:48.488Z,81.00
2017-10-02T16:19:50.428Z,79.30
2017-10-02T16:22:52.719Z,79.90
2017-10-02T16:25:54.860Z,80.20
2017-10-02T16:28:57.207Z,80.30
2017-10-02T16:31:59.167Z,80.50
2017-10-02T16:35:01.524Z,80.70
2017-10-02T16:38:03.567Z,81.10
2017-10-02T16:41:05.837Z,81.20
2017-10-02T16:44:08.806Z,81.80
2017-10-02T16:47:11.142Z,81.10
2017-10-02T16:50:13.108Z,80.00
2017-10-02T16:53:15.480Z,79.80
2017-10-02T16:56:17.601Z,79.50
2017-10-02T16:59:20.072Z,79.20
2017-10-02T17:02:22.019Z,79.10
2017-10-02T17:05:24.379Z,79.10
2017-10-02T17:08:26.500Z,79.80
2017-10-02T17:11:29.603Z,80.10
2017-10-02T17:14:31.531Z,80.10
2017-10-02T17:17:33.841Z,80.50
2017-10-02T17:20:35.851Z,80.30
2017-10-02T17:23:38.214Z,79.70
2017-10-02T17:26:40.155Z,79.70
2017-10-02T17:29:42.519Z,79.90
2017-10-02T17:32:45.119Z,80.10
2017-10-02T17:35:47.454Z,80.30
2017-10-02T17:38:49.387Z,80.20
2017-10-02T17:41:51.732Z,80.40
2017-10-02T17:44:53.899Z,80.70
2017-10-02T17:47:56.276Z,80.60
2017-10-02T17:50:58.229Z,81.00
2017-10-02T17:54:00.561Z,81.30
2017-10-02T17:57:02.691Z,81.60
2017-10-02T18:00:05.066Z,81.50
2017-10-02T18:03:07.015Z,81.70
2017-10-02T18:06:09.380Z,82.30
2017-10-02T18:09:11.328Z,82.40
2017-10-02T18:12:13.692Z,82.70
2017-10-02T18:15:15.673Z,83.10
2017-10-02T18:18:18.013Z,84.90
2017-10-02T18:21:20.057Z,84.60
2017-10-02T18:24:22.399Z,86.10
2017-10-02T18:27:24.348Z,87.20
2017-10-02T18:30:26.719Z,87.10
2017-10-02T18:33:28.646Z,87.70
2017-10-02T18:36:31.021Z,88.30
2017-10-02T18:39:32.969Z,88.70
2017-10-02T18:42:35.335Z,89.00
2017-10-02T18:45:37.287Z,89.30
2017-10-02T18:48:39.614Z,89.60
2017-10-02T18:51:41.564Z,89.60
2017-10-02T18:54:43.936Z,89.80
2017-10-02T18:57:45.889Z,89.90
2017-10-02T19:00:48.968Z,89.80
2017-10-02T19:03:50.911Z,89.20
2017-10-02T19:06:53.247Z,89.40
2017-10-02T19:09:55.181Z,89.50
2017-10-02T19:12:57.461Z,89.00
2017-10-02T19:15:59.394Z,89.20
2017-10-02T19:19:01.760Z,89.30
2017-10-02T19:22:03.696Z,89.20
2017-10-02T19:25:06.096Z,89.50
2017-10-02T19:28:08.057Z,88.50
2017-10-02T19:31:10.364Z,88.70
2017-10-02T19:34:12.407Z,87.00
2017-10-02T19:37:14.818Z,86.30
2017-10-02T19:40:16.766Z,86.40
2017-10-02T19:43:19.085Z,85.10
2017-10-02T19:46:21.692Z,84.00
2017-10-02T19:49:24.017Z,84.00
2017-10-02T19:52:25.947Z,82.50
2017-10-02T19:55:28.232Z,82.70
2017-10-02T19:58:30.272Z,82.50
2017-10-02T20:01:32.806Z,81.10
2017-10-02T20:04:34.760Z,81.40
2017-10-02T20:07:37.355Z,81.70
2017-10-02T20:10:39.326Z,81.50
2017-10-02T20:13:42.296Z,82.30
2017-10-02T20:16:44.286Z,81.50
2017-10-02T20:19:46.713Z,81.40
2017-10-02T20:22:49.557Z,81.40
2017-10-02T20:25:51.926Z,82.10
2017-10-02T20:28:54.666Z,82.50
2017-10-02T20:31:58.238Z,82.50
2017-10-02T20:35:00.183Z,83.00
2017-10-02T20:38:02.599Z,83.00
2017-10-02T20:41:05.315Z,83.90
2017-10-02T20:44:07.676Z,83.30
2017-10-02T20:47:09.624Z,83.60
2017-10-02T20:50:12.080Z,83.80
2017-10-02T20:53:14.035Z,84.40
2017-10-02T20:56:16.374Z,84.70
2017-10-02T20:59:18.403Z,84.60
2017-10-02T21:02:21.508Z,84.70
2017-10-02T21:05:23.659Z,84.70
2017-10-02T21:08:26.011Z,83.80
2017-10-02T21:11:28.105Z,83.80
2017-10-02T21:14:31.281Z,83.90
2017-10-02T21:17:33.316Z,83.70
2017-10-02T21:20:35.568Z,83.70
2017-10-02T21:23:37.560Z,83.50
2017-10-02T21:26:39.903Z,83.60
2017-10-02T21:29:41.939Z,83.40
2017-10-02T21:32:44.394Z,83.30
2017-10-02T21:35:46.338Z,83.40
2017-10-02T21:38:48.686Z,83.60
2017-10-02T21:41:50.651Z,83.70
2017-10-02T21:44:53.008Z,83.80
2017-10-02T21:47:54.949Z,84.10
2017-10-02T21:50:57.315Z,84.20
2017-10-02T21:53:59.255Z,84.40
2017-10-02T21:57:01.612Z,84.70
2017-10-02T22:00:03.559Z,85.00
2017-10-02T22:03:05.900Z,84.80
2017-10-02T22:06:08.601Z,84.90
2017-10-02T22:09:10.953Z,84.80
2017-10-02T22:12:12.938Z,84.90
2017-10-02T22:18:23.412Z,84.30
2017-10-02T22:21:26.569Z,84.40
2017-10-02T22:24:29.287Z,84.60
2017-10-02T22:27:31.643Z,84.50
2017-10-02T22:30:33.572Z,84.50
2017-10-02T22:33:35.939Z,84.50
2017-10-02T22:36:37.890Z,84.70
2017-10-02T22:39:40.260Z,84.30
2017-10-02T22:42:42.334Z,84.30
2017-10-02T22:45:44.663Z,84.90
2017-10-02T22:48:46.612Z,85.50
2017-10-02T22:51:49.141Z,85.80
2017-10-02T22:54:51.958Z,86.90
2017-10-02T22:57:54.309Z,86.90
2017-10-02T23:00:56.359Z,87.90
2017-10-02T23:03:58.716Z,88.90
2017-10-02T23:07:00.754Z,90.00
2017-10-02T23:10:03.134Z,90.50
2017-10-02T23:13:05.162Z,90.90
2017-10-02T23:16:07.680Z,91.00
2017-10-02T23:19:09.678Z,90.90
2017-10-02T23:22:12.043Z,91.30
2017-10-02T23:25:14.091Z,91.30
2017-10-02T23:28:16.540Z,91.40
2017-10-02T23:31:18.591Z,91.30
2017-10-02T23:34:20.947Z,91.50
2017-10-02T23:37:22.873Z,91.60
2017-10-02T23:40:26.118Z,91.50
2017-10-02T23:43:28.139Z,91.50
2017-10-02T23:46:30.477Z,91.20
2017-10-02T23:49:32.402Z,91.00
2017-10-02T23:52:35.521Z,90.70
2017-10-02T23:55:37.450Z,90.70
2017-10-02T23:58:39.763Z,90.60
